Warren, Pennsylvania
Current Conditions -  °F | °C
As of 10:55 AM on Thursday 30 Oct 2014 (Local Time) from KJHW Reporting Station
Overcast Overcast  
Wind Chill: 36°   Ceiling: 2600
Heat Index: 41°   Visibility: 10mi
Dew Point: 34°   Wind: 7mph
Humidity: 76%   Direction: 300°WNW
Pressure: 30.07"   Gusts: NA
Location:  41.84°N, 79.14°W
Report Text: KJHW 301455Z AUTO 30006KT 10SM FEW019 OVC026 05/01 A3007 RMK AO1 52010
Loading
Personal Weather Stations






























Interactive Weather Map New forecast layout! Learn more

10-Day Weather Forecast

Advertisements
Track Severe Weather on mobile